createdAt,value
2022-09-27T00:00:39.046Z,24.98
2022-09-27T00:03:07.951Z,26.90
2022-09-27T00:05:34.923Z,19.65
2022-09-27T00:08:02.045Z,25.38
2022-09-27T00:10:29.097Z,16.60
2022-09-27T00:12:56.038Z,21.75
2022-09-27T00:15:22.979Z,18.73
2022-09-27T00:17:52.857Z,20.20
2022-09-27T00:20:21.211Z,28.27
2022-09-27T00:22:49.201Z,25.90
2022-09-27T00:25:16.704Z,32.45
2022-09-27T00:27:43.560Z,26.08
2022-09-27T00:30:11.258Z,14.25
2022-09-27T00:32:38.134Z,19.75
2022-09-27T00:35:05.724Z,18.20
2022-09-27T00:37:32.571Z,18.60
2022-09-27T00:39:59.358Z,25.98
2022-09-27T00:42:26.082Z,26.23
2022-09-27T00:45:20.934Z,25.27
2022-09-27T00:47:54.891Z,21.58
2022-09-27T00:50:37.895Z,23.10
2022-09-27T00:53:12.397Z,22.98
2022-09-27T00:56:13.916Z,23.48
2022-09-27T00:58:48.345Z,18.00
2022-09-27T01:01:15.194Z,17.85
2022-09-27T01:03:50.880Z,25.88
2022-09-27T01:06:22.230Z,20.27
2022-09-27T01:08:49.499Z,23.03
2022-09-27T01:11:26.645Z,36.05
2022-09-27T01:14:40.757Z,20.67
2022-09-27T01:17:26.816Z,27.40
2022-09-27T01:20:50.193Z,19.13
2022-09-27T01:24:04.854Z,32.42
2022-09-27T01:27:10.107Z,24.55
2022-09-27T01:30:11.092Z,29.98
2022-09-27T01:32:45.321Z,25.90
2022-09-27T01:35:12.099Z,31.17
2022-09-27T01:37:44.563Z,30.00
2022-09-27T01:40:34.102Z,21.33
2022-09-27T01:43:12.339Z,31.05
2022-09-27T01:45:56.371Z,29.73
2022-09-27T01:48:24.537Z,20.95
2022-09-27T01:51:13.910Z,36.15
2022-09-27T01:53:53.189Z,35.35
2022-09-27T01:56:28.253Z,27.13
2022-09-27T01:59:01.846Z,30.85
2022-09-27T02:01:32.649Z,27.50
2022-09-27T02:04:01.953Z,24.02
2022-09-27T02:06:35.149Z,29.15
2022-09-27T02:09:19.497Z,23.08
2022-09-27T02:11:56.108Z,18.95
2022-09-27T02:14:28.139Z,21.42
2022-09-27T02:17:33.199Z,29.58
2022-09-27T02:20:17.338Z,26.50
2022-09-27T02:23:04.282Z,26.42
2022-09-27T02:25:42.126Z,27.77
2022-09-27T02:28:26.953Z,27.42
2022-09-27T02:30:53.821Z,32.50
2022-09-27T02:33:24.931Z,34.33
2022-09-27T02:35:51.709Z,30.77
2022-09-27T02:38:19.286Z,28.67
2022-09-27T02:40:47.834Z,23.70
2022-09-27T02:43:17.941Z,29.17
2022-09-27T02:45:47.463Z,20.92
2022-09-27T02:48:14.226Z,28.55
2022-09-27T02:51:08.444Z,22.55
2022-09-27T02:53:48.516Z,24.48
2022-09-27T02:56:34.808Z,34.25
2022-09-27T02:59:32.546Z,25.20
2022-09-27T03:02:30.177Z,38.30
2022-09-27T03:05:02.658Z,21.42
2022-09-27T03:07:29.821Z,37.92
2022-09-27T03:09:57.877Z,26.70
2022-09-27T03:12:27.939Z,23.25
2022-09-27T03:15:00.278Z,24.50
2022-09-27T03:17:27.279Z,33.78
2022-09-27T03:19:53.981Z,21.35
2022-09-27T03:22:20.670Z,21.17
2022-09-27T03:24:47.630Z,28.90
2022-09-27T03:27:14.359Z,23.25
2022-09-27T03:29:41.039Z,25.42
2022-09-27T03:32:07.816Z,22.23
2022-09-27T03:34:34.530Z,39.88
2022-09-27T03:37:02.128Z,27.27
2022-09-27T03:39:29.091Z,33.67
2022-09-27T03:41:55.882Z,31.05
2022-09-27T03:44:22.678Z,25.17
2022-09-27T03:46:49.455Z,27.15
2022-09-27T03:49:16.206Z,21.25
2022-09-27T03:51:43.282Z,17.63
2022-09-27T03:54:10.401Z,29.60
2022-09-27T03:56:37.130Z,26.90
2022-09-27T03:59:04.081Z,21.90
2022-09-27T04:01:30.948Z,31.65
2022-09-27T04:03:57.744Z,22.95
2022-09-27T04:06:24.618Z,24.40
2022-09-27T04:08:51.364Z,28.92
2022-09-27T04:11:18.163Z,25.33
2022-09-27T04:13:44.952Z,24.83
2022-09-27T04:16:11.677Z,20.98
2022-09-27T04:18:38.553Z,24.25
2022-09-27T04:21:05.429Z,30.50
2022-09-27T04:23:32.112Z,18.85
2022-09-27T04:25:58.935Z,23.90
2022-09-27T04:28:26.126Z,33.35
2022-09-27T04:30:52.946Z,35.03
2022-09-27T04:33:19.769Z,31.65
2022-09-27T04:36:05.009Z,32.60
2022-09-27T04:38:31.754Z,27.10
2022-09-27T04:41:01.476Z,27.02
2022-09-27T04:43:29.832Z,28.40
2022-09-27T04:45:56.601Z,30.58
2022-09-27T04:48:23.479Z,24.08
2022-09-27T04:51:02.367Z,21.33
2022-09-27T04:53:29.992Z,26.80
2022-09-27T04:55:57.278Z,29.77
2022-09-27T04:58:24.547Z,22.55
2022-09-27T05:00:52.482Z,26.83
2022-09-27T05:03:19.625Z,20.08
2022-09-27T05:05:46.310Z,38.00
2022-09-27T05:08:14.199Z,25.05
2022-09-27T05:10:41.106Z,26.13
2022-09-27T05:13:07.934Z,26.98
2022-09-27T05:15:35.440Z,26.33
2022-09-27T05:18:02.129Z,25.75
2022-09-27T05:20:29.470Z,35.15
2022-09-27T05:22:57.067Z,24.55
2022-09-27T05:25:24.291Z,26.38
2022-09-27T05:27:51.703Z,29.73
2022-09-27T05:30:19.276Z,20.38
2022-09-27T05:32:50.327Z,37.40
2022-09-27T05:35:21.080Z,42.42
2022-09-27T05:38:00.184Z,29.35
2022-09-27T05:40:40.773Z,16.48
2022-09-27T05:43:08.685Z,22.30
2022-09-27T05:45:35.428Z,31.90
2022-09-27T05:48:02.806Z,30.35
2022-09-27T05:50:29.705Z,25.42
2022-09-27T05:52:56.464Z,24.13
2022-09-27T05:55:23.302Z,15.75
2022-09-27T05:58:00.645Z,31.55
2022-09-27T06:00:28.824Z,24.35
2022-09-27T06:02:57.453Z,29.05
2022-09-27T06:05:25.509Z,26.77
2022-09-27T06:07:53.197Z,23.35
2022-09-27T06:10:20.190Z,21.95
2022-09-27T06:12:48.005Z,31.95
2022-09-27T06:15:14.794Z,33.35
2022-09-27T06:17:41.833Z,28.38
2022-09-27T06:20:09.617Z,26.90
2022-09-27T06:22:37.040Z,25.35
2022-09-27T06:25:04.677Z,27.30
2022-09-27T06:27:32.391Z,24.80
2022-09-27T06:29:59.164Z,25.23
2022-09-27T06:32:26.134Z,23.05
2022-09-27T06:34:52.989Z,24.23
2022-09-27T06:37:19.791Z,22.15
2022-09-27T06:39:49.169Z,27.48
2022-09-27T06:42:18.044Z,35.35
2022-09-27T06:44:49.406Z,26.17
2022-09-27T06:49:43.986Z,27.88
2022-09-27T06:52:11.557Z,30.98
2022-09-27T06:54:38.321Z,24.38
2022-09-27T06:57:05.750Z,19.85
2022-09-27T06:59:51.031Z,20.65
2022-09-27T07:02:18.287Z,34.92
2022-09-27T07:04:46.096Z,37.15
2022-09-27T07:07:13.919Z,29.98
2022-09-27T07:09:40.858Z,29.00
2022-09-27T07:12:07.673Z,23.90
2022-09-27T07:14:36.095Z,24.65
2022-09-27T07:17:02.816Z,27.83
2022-09-27T07:19:29.526Z,34.97
2022-09-27T07:21:56.330Z,28.92
2022-09-27T07:24:23.257Z,17.88
2022-09-27T07:26:50.186Z,31.52
2022-09-27T07:29:16.942Z,24.90
2022-09-27T07:31:43.796Z,33.05
2022-09-27T07:34:12.434Z,27.65
2022-09-27T07:36:39.187Z,23.25
2022-09-27T07:39:06.322Z,21.60
2022-09-27T07:41:33.611Z,24.27
2022-09-27T07:44:00.504Z,26.67
2022-09-27T07:46:27.860Z,34.13
2022-09-27T07:48:54.632Z,29.67
2022-09-27T07:51:21.389Z,19.98
2022-09-27T07:53:48.142Z,23.60
2022-09-27T07:56:14.834Z,35.05
2022-09-27T07:58:42.165Z,25.90
2022-09-27T08:01:09.071Z,34.20
2022-09-27T08:03:36.324Z,23.60
2022-09-27T08:06:04.447Z,28.00
2022-09-27T08:08:31.121Z,28.73
2022-09-27T08:10:58.932Z,30.08
2022-09-27T08:13:25.731Z,22.13
2022-09-27T08:15:52.896Z,28.55
2022-09-27T08:18:22.063Z,27.30
2022-09-27T08:20:48.968Z,29.48
2022-09-27T08:23:15.773Z,26.17
2022-09-27T08:25:43.816Z,40.35
2022-09-27T08:28:10.555Z,28.90
2022-09-27T08:31:16.825Z,26.52
2022-09-27T08:33:43.599Z,13.45
2022-09-27T08:36:13.696Z,26.23
2022-09-27T08:38:40.386Z,29.17
2022-09-27T08:45:31.198Z,29.67
2022-09-27T08:48:05.176Z,24.63
2022-09-27T08:50:53.573Z,29.73
2022-09-27T08:58:20.416Z,30.90
2022-09-27T09:01:17.121Z,20.60
2022-09-27T09:07:53.070Z,25.08
2022-09-27T09:18:26.718Z,30.70
2022-09-27T09:37:11.122Z,22.90
2022-09-27T09:40:08.899Z,29.27
2022-09-27T09:46:45.575Z,27.45
2022-09-27T09:49:27.358Z,29.58
2022-09-27T09:55:36.693Z,23.42
2022-09-27T09:58:23.661Z,22.38
2022-09-27T10:04:51.441Z,21.25
2022-09-27T10:11:02.093Z,24.20
2022-09-27T10:13:33.780Z,23.73
2022-09-27T10:24:12.419Z,21.83
2022-09-27T10:27:04.240Z,23.08
2022-09-27T10:29:37.886Z,30.83
2022-09-27T10:32:45.433Z,18.48
2022-09-27T10:39:19.644Z,25.13
2022-09-27T10:41:46.424Z,22.30
2022-09-27T10:44:47.588Z,33.15
2022-09-27T10:47:23.131Z,48.72
2022-09-27T10:50:38.945Z,35.65
2022-09-27T11:01:39.984Z,31.13
2022-09-27T11:04:38.282Z,29.67
2022-09-27T11:07:25.492Z,23.27
2022-09-27T11:10:36.258Z,19.63
2022-09-27T11:13:24.330Z,20.85
2022-09-27T11:16:28.874Z,31.23
2022-09-27T11:19:24.727Z,21.77
2022-09-27T11:30:44.364Z,34.50
2022-09-27T11:33:32.802Z,25.35
2022-09-27T11:36:14.598Z,22.23
2022-09-27T11:39:11.302Z,20.55
2022-09-27T11:42:00.946Z,27.45
2022-09-27T11:44:39.779Z,20.75
2022-09-27T11:55:03.476Z,27.42
2022-09-27T11:58:34.057Z,22.73
2022-09-27T12:01:42.744Z,25.23
2022-09-27T12:04:48.238Z,21.40
2022-09-27T12:07:49.504Z,18.23
2022-09-27T12:15:06.469Z,20.00
2022-09-27T12:18:00.551Z,20.77
2022-09-27T12:24:25.196Z,18.42
2022-09-27T12:30:49.190Z,28.48
2022-09-27T12:33:30.888Z,13.32
2022-09-27T12:43:34.927Z,19.27
2022-09-27T12:54:35.750Z,14.70
2022-09-27T13:01:35.471Z,24.88
2022-09-27T13:04:11.210Z,15.82
2022-09-27T13:06:53.150Z,17.48
2022-09-27T13:09:51.605Z,20.15
2022-09-27T13:12:25.945Z,24.55
2022-09-27T13:18:53.115Z,16.98
2022-09-27T13:21:44.637Z,23.42
2022-09-27T13:24:43.205Z,22.93
2022-09-27T13:27:28.225Z,10.77
2022-09-27T13:33:50.595Z,17.27
2022-09-27T13:36:20.295Z,17.45
2022-09-27T13:39:04.560Z,18.90
2022-09-27T13:53:40.160Z,12.48
2022-09-27T13:56:48.295Z,13.73
2022-09-27T14:03:35.836Z,13.73
2022-09-27T14:06:28.985Z,18.52
2022-09-27T14:17:18.267Z,16.80
2022-09-27T14:20:08.326Z,19.15
2022-09-27T14:22:55.417Z,13.88
2022-09-27T14:29:44.922Z,19.60
2022-09-27T14:32:34.261Z,11.82
2022-09-27T14:35:43.801Z,19.80
2022-09-27T14:46:00.691Z,17.65
2022-09-27T14:56:40.674Z,21.95
2022-09-27T15:00:12.225Z,21.95
2022-09-27T15:06:57.223Z,11.85
2022-09-27T15:09:24.690Z,20.70
2022-09-27T15:15:35.420Z,11.98
2022-09-27T15:22:24.690Z,21.17
2022-09-27T15:32:31.923Z,15.48
2022-09-27T15:35:08.181Z,19.77
2022-09-27T15:45:31.517Z,14.32
2022-09-27T15:48:13.550Z,13.73
2022-09-27T15:50:41.490Z,14.15
2022-09-27T15:53:12.095Z,16.30
2022-09-27T15:59:26.926Z,10.10
2022-09-27T16:05:34.106Z,19.25
2022-09-27T16:12:09.118Z,18.02
2022-09-27T16:19:06.987Z,10.88
2022-09-27T16:25:28.731Z,13.05
2022-09-27T16:31:46.602Z,13.50
2022-09-27T16:38:03.913Z,13.00
2022-09-27T16:40:30.837Z,11.30
2022-09-27T16:43:51.730Z,14.20
2022-09-27T16:46:19.531Z,14.45
2022-09-27T16:52:55.438Z,16.85
2022-09-27T16:56:08.788Z,12.05
2022-09-27T16:58:35.513Z,13.25
2022-09-27T17:01:02.331Z,13.75
2022-09-27T17:20:09.236Z,13.60
2022-09-27T17:22:56.266Z,21.73
2022-09-27T17:25:43.283Z,16.35
2022-09-27T17:28:44.372Z,10.32
2022-09-27T17:31:15.553Z,14.68
2022-09-27T17:33:45.361Z,15.37
2022-09-27T17:39:52.761Z,8.80
2022-09-27T17:42:19.440Z,16.63
2022-09-27T17:44:54.593Z,13.75
2022-09-27T17:47:39.547Z,11.15
2022-09-27T18:02:29.339Z,9.48
2022-09-27T18:04:56.085Z,12.00
2022-09-27T18:07:22.799Z,10.18
2022-09-27T18:09:51.206Z,15.05
2022-09-27T18:12:18.053Z,17.20
2022-09-27T18:14:45.923Z,13.60
2022-09-27T18:21:23.872Z,14.75
2022-09-27T18:27:43.397Z,18.52
2022-09-27T18:30:10.580Z,13.93
2022-09-27T18:36:30.414Z,11.38
2022-09-27T18:42:47.960Z,18.83
2022-09-27T18:45:14.712Z,16.75
2022-09-27T18:47:41.656Z,14.55
2022-09-27T18:50:08.655Z,19.83
2022-09-27T18:52:35.645Z,12.35
2022-09-27T19:03:40.427Z,15.57
2022-09-27T19:06:12.504Z,13.35
2022-09-27T19:12:57.329Z,9.45
2022-09-27T19:15:24.866Z,15.10
2022-09-27T19:21:32.145Z,16.90
2022-09-27T19:23:58.936Z,18.90
2022-09-27T19:30:22.064Z,15.98
2022-09-27T19:32:53.730Z,13.57
2022-09-27T19:35:20.482Z,21.45
2022-09-27T19:38:35.320Z,15.80
2022-09-27T19:45:13.119Z,13.30
2022-09-27T19:55:31.265Z,12.27
2022-09-27T20:02:28.969Z,13.57
2022-09-27T20:05:05.531Z,13.95
2022-09-27T20:07:35.058Z,18.58
2022-09-27T20:23:20.039Z,12.23
2022-09-27T20:25:47.965Z,6.70
2022-09-27T20:28:14.727Z,15.65
2022-09-27T20:30:41.502Z,5.07
2022-09-27T20:33:26.586Z,9.35
2022-09-27T20:36:15.792Z,11.73
2022-09-27T20:38:44.711Z,20.95
2022-09-27T20:41:14.546Z,7.82
2022-09-27T20:47:32.146Z,11.60
2022-09-27T20:58:22.443Z,6.80
2022-09-27T21:01:10.587Z,12.07
2022-09-27T21:03:59.893Z,5.55
2022-09-27T21:06:47.300Z,7.72
2022-09-27T21:13:43.143Z,6.15
2022-09-27T21:16:35.680Z,7.78
2022-09-27T21:29:54.283Z,7.88
2022-09-27T21:40:23.222Z,7.22
2022-09-27T21:51:08.369Z,14.98
2022-09-27T21:53:58.840Z,11.73
2022-09-27T22:00:16.736Z,13.60
2022-09-27T22:02:43.430Z,6.55
2022-09-27T22:05:10.161Z,3.58
2022-09-27T22:07:36.883Z,10.32
2022-09-27T22:10:03.785Z,7.90
2022-09-27T22:12:30.497Z,10.98
2022-09-27T22:14:57.227Z,8.27
2022-09-27T22:21:07.434Z,7.03
2022-09-27T22:23:34.610Z,7.03
2022-09-27T22:27:04.966Z,7.72
2022-09-27T22:33:11.894Z,6.53
2022-09-27T22:35:45.771Z,8.88
2022-09-27T22:38:12.505Z,6.47
2022-09-27T22:45:03.224Z,8.38
2022-09-27T22:47:29.947Z,11.32
2022-09-27T22:49:58.786Z,11.05
2022-09-27T22:52:26.183Z,7.82
2022-09-27T22:54:53.094Z,10.07
2022-09-27T22:57:19.810Z,6.05
2022-09-27T22:59:46.558Z,13.32
2022-09-27T23:02:13.263Z,7.68
2022-09-27T23:08:35.350Z,13.60
2022-09-27T23:18:55.028Z,9.90
2022-09-27T23:21:25.869Z,9.52
2022-09-27T23:23:55.337Z,9.15
2022-09-27T23:26:26.176Z,7.60
2022-09-27T23:28:56.925Z,11.57
2022-09-27T23:35:15.408Z,7.57
2022-09-27T23:37:43.173Z,5.20
2022-09-27T23:40:10.468Z,5.82
2022-09-27T23:42:37.151Z,6.95
2022-09-27T23:45:04.162Z,7.28
2022-09-27T23:47:30.987Z,14.05
2022-09-27T23:49:58.422Z,5.60
2022-09-27T23:52:26.260Z,4.28
2022-09-27T23:54:53.555Z,8.90
2022-09-27T23:57:20.221Z,5.90
2022-09-27T23:59:46.942Z,10.85
